sensor_id;sensor_type;location;lat;lon;timestamp;pressure;altitude;pressure_sealevel;temperature;humidity
64713;BME280;51140;45.340;5.980;2023-07-08T00:01:43;98296.03;;;22.28;70.82
64713;BME280;51140;45.340;5.980;2023-07-08T00:04:08;98290.16;;;22.26;70.66
64713;BME280;51140;45.340;5.980;2023-07-08T00:06:34;98281.84;;;22.31;70.85
64713;BME280;51140;45.340;5.980;2023-07-08T00:09:00;98275.50;;;22.63;68.53
64713;BME280;51140;45.340;5.980;2023-07-08T00:11:26;98265.72;;;22.59;68.84
64713;BME280;51140;45.340;5.980;2023-07-08T00:13:53;98251.88;;;22.72;68.30
64713;BME280;51140;45.340;5.980;2023-07-08T00:16:18;98233.88;;;22.92;66.46
64713;BME280;51140;45.340;5.980;2023-07-08T00:18:45;98244.81;;;22.96;66.47
64713;BME280;51140;45.340;5.980;2023-07-08T00:21:16;98249.25;;;22.88;68.83
64713;BME280;51140;45.340;5.980;2023-07-08T00:23:46;98233.59;;;22.82;67.68
64713;BME280;51140;45.340;5.980;2023-07-08T00:26:25;98238.91;;;22.54;68.36
64713;BME280;51140;45.340;5.980;2023-07-08T00:28:52;98246.09;;;22.50;69.35
64713;BME280;51140;45.340;5.980;2023-07-08T00:31:17;98247.25;;;22.49;68.60
64713;BME280;51140;45.340;5.980;2023-07-08T00:33:48;98252.75;;;22.52;70.08
64713;BME280;51140;45.340;5.980;2023-07-08T00:36:14;98256.25;;;22.53;69.73
64713;BME280;51140;45.340;5.980;2023-07-08T00:38:41;98264.59;;;22.60;71.99
64713;BME280;51140;45.340;5.980;2023-07-08T00:41:21;98272.16;;;22.66;70.95
64713;BME280;51140;45.340;5.980;2023-07-08T00:43:51;98287.72;;;22.57;70.61
64713;BME280;51140;45.340;5.980;2023-07-08T00:51:23;98302.00;;;22.58;69.85
64713;BME280;51140;45.340;5.980;2023-07-08T00:53:49;98296.63;;;22.46;71.57
64713;BME280;51140;45.340;5.980;2023-07-08T00:56:26;98297.28;;;22.31;71.57
64713;BME280;51140;45.340;5.980;2023-07-08T00:59:07;98302.25;;;22.29;71.75
64713;BME280;51140;45.340;5.980;2023-07-08T01:01:37;98304.28;;;22.32;72.04
64713;BME280;51140;45.340;5.980;2023-07-08T01:04:17;98318.94;;;22.43;73.51
64713;BME280;51140;45.340;5.980;2023-07-08T01:06:47;98313.41;;;22.39;72.83
64713;BME280;51140;45.340;5.980;2023-07-08T01:09:18;98316.41;;;22.38;72.84
64713;BME280;51140;45.340;5.980;2023-07-08T01:11:43;98325.22;;;22.22;73.38
64713;BME280;51140;45.340;5.980;2023-07-08T01:14:12;98317.25;;;21.93;74.00
64713;BME280;51140;45.340;5.980;2023-07-08T01:16:41;98322.00;;;21.96;73.94
64713;BME280;51140;45.340;5.980;2023-07-08T01:19:11;98318.50;;;21.96;74.22
64713;BME280;51140;45.340;5.980;2023-07-08T01:21:58;98316.28;;;22.10;74.05
64713;BME280;51140;45.340;5.980;2023-07-08T01:24:27;98289.94;;;21.86;73.20
64713;BME280;51140;45.340;5.980;2023-07-08T01:26:54;98246.25;;;21.84;73.63
64713;BME280;51140;45.340;5.980;2023-07-08T01:29:21;98228.75;;;22.39;71.04
64713;BME280;51140;45.340;5.980;2023-07-08T01:31:47;98235.75;;;22.28;72.79
64713;BME280;51140;45.340;5.980;2023-07-08T01:34:14;98247.31;;;22.04;73.75
64713;BME280;51140;45.340;5.980;2023-07-08T01:36:44;98234.81;;;21.87;75.66
64713;BME280;51140;45.340;5.980;2023-07-08T01:39:13;98235.84;;;21.62;77.12
64713;BME280;51140;45.340;5.980;2023-07-08T01:41:39;98227.13;;;21.44;76.37
64713;BME280;51140;45.340;5.980;2023-07-08T01:44:05;98222.09;;;22.00;73.11
64713;BME280;51140;45.340;5.980;2023-07-08T01:46:30;98218.09;;;21.85;74.02
64713;BME280;51140;45.340;5.980;2023-07-08T01:48:59;98223.00;;;21.59;75.99
64713;BME280;51140;45.340;5.980;2023-07-08T01:51:26;98213.53;;;21.53;76.18
64713;BME280;51140;45.340;5.980;2023-07-08T01:53:52;98201.91;;;21.40;76.98
64713;BME280;51140;45.340;5.980;2023-07-08T01:56:17;98190.59;;;21.83;72.91
64713;BME280;51140;45.340;5.980;2023-07-08T01:58:43;98179.41;;;22.42;67.67
64713;BME280;51140;45.340;5.980;2023-07-08T02:01:09;98179.72;;;22.52;65.09
64713;BME280;51140;45.340;5.980;2023-07-08T02:03:35;98197.31;;;22.34;69.35
64713;BME280;51140;45.340;5.980;2023-07-08T02:06:01;98192.59;;;22.07;71.59
64713;BME280;51140;45.340;5.980;2023-07-08T02:08:26;98193.03;;;22.09;70.97
64713;BME280;51140;45.340;5.980;2023-07-08T02:10:54;98180.69;;;21.63;72.63
64713;BME280;51140;45.340;5.980;2023-07-08T02:13:20;98197.19;;;23.07;56.33
64713;BME280;51140;45.340;5.980;2023-07-08T02:15:46;98196.75;;;22.65;66.53
64713;BME280;51140;45.340;5.980;2023-07-08T02:18:12;98220.41;;;22.44;69.36
64713;BME280;51140;45.340;5.980;2023-07-08T02:20:37;98243.72;;;22.00;73.23
64713;BME280;51140;45.340;5.980;2023-07-08T02:23:03;98232.72;;;21.84;73.30
64713;BME280;51140;45.340;5.980;2023-07-08T02:25:28;98230.84;;;21.52;74.64
64713;BME280;51140;45.340;5.980;2023-07-08T02:27:54;98223.56;;;21.64;73.45
64713;BME280;51140;45.340;5.980;2023-07-08T02:30:23;98230.97;;;21.88;74.24
64713;BME280;51140;45.340;5.980;2023-07-08T02:32:48;98230.81;;;21.85;73.59
64713;BME280;51140;45.340;5.980;2023-07-08T02:35:22;98229.94;;;21.48;75.47
64713;BME280;51140;45.340;5.980;2023-07-08T02:37:47;98229.94;;;21.48;75.01
64713;BME280;51140;45.340;5.980;2023-07-08T02:40:13;98237.97;;;21.56;75.00
64713;BME280;51140;45.340;5.980;2023-07-08T02:42:39;98247.03;;;21.52;74.50
64713;BME280;51140;45.340;5.980;2023-07-08T02:45:05;98241.94;;;21.38;75.42
64713;BME280;51140;45.340;5.980;2023-07-08T02:47:30;98240.13;;;21.30;75.74
64713;BME280;51140;45.340;5.980;2023-07-08T02:49:56;98238.41;;;21.26;73.55
64713;BME280;51140;45.340;5.980;2023-07-08T02:52:21;98229.38;;;21.42;71.18
64713;BME280;51140;45.340;5.980;2023-07-08T02:54:46;98229.50;;;21.46;72.89
64713;BME280;51140;45.340;5.980;2023-07-08T02:57:12;98242.88;;;21.42;69.35
64713;BME280;51140;45.340;5.980;2023-07-08T02:59:37;98246.03;;;21.24;71.67
64713;BME280;51140;45.340;5.980;2023-07-08T03:02:04;98237.09;;;21.32;68.45
64713;BME280;51140;45.340;5.980;2023-07-08T03:04:29;98227.28;;;21.27;68.45
64713;BME280;51140;45.340;5.980;2023-07-08T03:06:55;98222.22;;;21.26;69.30
64713;BME280;51140;45.340;5.980;2023-07-08T03:09:20;98226.03;;;21.25;71.79
64713;BME280;51140;45.340;5.980;2023-07-08T03:11:46;98219.69;;;21.21;69.96
64713;BME280;51140;45.340;5.980;2023-07-08T03:14:12;98226.69;;;21.22;68.73
64713;BME280;51140;45.340;5.980;2023-07-08T03:16:37;98215.97;;;21.13;68.82
64713;BME280;51140;45.340;5.980;2023-07-08T03:19:02;98222.50;;;21.45;65.53
64713;BME280;51140;45.340;5.980;2023-07-08T03:21:29;98219.53;;;21.38;66.02
64713;BME280;51140;45.340;5.980;2023-07-08T03:23:55;98224.69;;;21.51;64.62
64713;BME280;51140;45.340;5.980;2023-07-08T03:26:22;98221.94;;;21.39;66.74
64713;BME280;51140;45.340;5.980;2023-07-08T03:28:49;98223.22;;;21.54;65.55
64713;BME280;51140;45.340;5.980;2023-07-08T03:31:14;98230.59;;;21.45;65.58
64713;BME280;51140;45.340;5.980;2023-07-08T03:33:40;98236.53;;;21.38;66.75
64713;BME280;51140;45.340;5.980;2023-07-08T03:36:11;98240.88;;;21.51;67.52
64713;BME280;51140;45.340;5.980;2023-07-08T03:38:38;98249.56;;;21.57;69.23
64713;BME280;51140;45.340;5.980;2023-07-08T03:41:04;98259.97;;;21.46;70.65
64713;BME280;51140;45.340;5.980;2023-07-08T03:43:30;98256.03;;;21.02;69.72
64713;BME280;51140;45.340;5.980;2023-07-08T03:45:55;98254.19;;;20.94;71.38
64713;BME280;51140;45.340;5.980;2023-07-08T03:48:21;98254.44;;;20.81;71.25
64713;BME280;51140;45.340;5.980;2023-07-08T03:50:46;98256.16;;;20.85;71.26
64713;BME280;51140;45.340;5.980;2023-07-08T03:53:12;98253.91;;;20.87;69.45
64713;BME280;51140;45.340;5.980;2023-07-08T03:55:37;98262.50;;;21.10;69.62
64713;BME280;51140;45.340;5.980;2023-07-08T03:58:02;98263.56;;;21.18;69.26
64713;BME280;51140;45.340;5.980;2023-07-08T04:00:28;98261.44;;;21.02;69.77
64713;BME280;51140;45.340;5.980;2023-07-08T04:02:53;98263.19;;;20.98;67.56
64713;BME280;51140;45.340;5.980;2023-07-08T04:05:21;98255.56;;;21.00;67.55
64713;BME280;51140;45.340;5.980;2023-07-08T04:07:48;98250.91;;;21.09;66.10
64713;BME280;51140;45.340;5.980;2023-07-08T04:10:14;98259.66;;;21.06;65.57
64713;BME280;51140;45.340;5.980;2023-07-08T04:12:40;98257.41;;;21.29;63.83
64713;BME280;51140;45.340;5.980;2023-07-08T04:15:08;98257.81;;;21.40;67.59
64713;BME280;51140;45.340;5.980;2023-07-08T04:17:48;98256.81;;;21.44;68.46
64713;BME280;51140;45.340;5.980;2023-07-08T04:20:16;98253.03;;;21.25;67.48
64713;BME280;51140;45.340;5.980;2023-07-08T04:22:43;98260.84;;;21.18;66.71
64713;BME280;51140;45.340;5.980;2023-07-08T04:25:11;98267.34;;;20.96;68.99
64713;BME280;51140;45.340;5.980;2023-07-08T04:27:38;98279.50;;;21.10;68.20
64713;BME280;51140;45.340;5.980;2023-07-08T04:30:04;98285.50;;;21.16;66.89
64713;BME280;51140;45.340;5.980;2023-07-08T04:32:30;98276.97;;;21.26;66.75
64713;BME280;51140;45.340;5.980;2023-07-08T04:34:55;98280.47;;;21.27;67.81
64713;BME280;51140;45.340;5.980;2023-07-08T04:37:21;98281.56;;;21.05;68.69
64713;BME280;51140;45.340;5.980;2023-07-08T04:39:46;98280.88;;;21.17;66.12
64713;BME280;51140;45.340;5.980;2023-07-08T04:42:14;98285.63;;;21.20;67.95
64713;BME280;51140;45.340;5.980;2023-07-08T04:44:41;98283.38;;;21.22;68.50
64713;BME280;51140;45.340;5.980;2023-07-08T04:47:07;98292.59;;;21.41;67.90
64713;BME280;51140;45.340;5.980;2023-07-08T04:49:34;98301.50;;;21.42;68.69
64713;BME280;51140;45.340;5.980;2023-07-08T04:52:00;98316.38;;;21.48;70.20
64713;BME280;51140;45.340;5.980;2023-07-08T04:54:28;98309.38;;;21.26;67.99
64713;BME280;51140;45.340;5.980;2023-07-08T04:56:53;98316.81;;;21.29;65.74
64713;BME280;51140;45.340;5.980;2023-07-08T04:59:23;98318.03;;;21.20;66.73
64713;BME280;51140;45.340;5.980;2023-07-08T05:01:49;98316.63;;;21.14;68.48
64713;BME280;51140;45.340;5.980;2023-07-08T05:04:17;98322.94;;;21.18;66.79
64713;BME280;51140;45.340;5.980;2023-07-08T05:06:42;98324.91;;;21.29;70.18
64713;BME280;51140;45.340;5.980;2023-07-08T05:09:09;98328.91;;;21.02;69.40
64713;BME280;51140;45.340;5.980;2023-07-08T05:11:35;98332.06;;;21.04;70.92
64713;BME280;51140;45.340;5.980;2023-07-08T05:14:01;98331.84;;;21.18;71.20
64713;BME280;51140;45.340;5.980;2023-07-08T05:16:27;98329.41;;;20.67;73.17
64713;BME280;51140;45.340;5.980;2023-07-08T05:18:52;98335.06;;;20.82;70.17
64713;BME280;51140;45.340;5.980;2023-07-08T05:21:19;98335.97;;;21.16;72.44
64713;BME280;51140;45.340;5.980;2023-07-08T05:23:48;98338.88;;;21.10;70.10
64713;BME280;51140;45.340;5.980;2023-07-08T05:26:16;98335.38;;;20.81;68.67
64713;BME280;51140;45.340;5.980;2023-07-08T05:28:42;98341.78;;;20.68;72.04
64713;BME280;51140;45.340;5.980;2023-07-08T05:31:08;98337.38;;;20.63;72.21
64713;BME280;51140;45.340;5.980;2023-07-08T05:33:33;98341.00;;;20.67;72.98
64713;BME280;51140;45.340;5.980;2023-07-08T05:35:59;98352.97;;;20.58;75.62
64713;BME280;51140;45.340;5.980;2023-07-08T05:38:26;98355.16;;;20.55;75.32
64713;BME280;51140;45.340;5.980;2023-07-08T05:40:54;98349.63;;;20.52;73.29
64713;BME280;51140;45.340;5.980;2023-07-08T05:43:20;98349.63;;;20.52;73.72
64713;BME280;51140;45.340;5.980;2023-07-08T05:45:46;98350.91;;;20.54;72.92
64713;BME280;51140;45.340;5.980;2023-07-08T05:48:12;98354.94;;;20.69;73.08
64713;BME280;51140;45.340;5.980;2023-07-08T05:50:39;98356.34;;;21.04;72.18
64713;BME280;51140;45.340;5.980;2023-07-08T05:53:05;98358.38;;;21.16;71.85
64713;BME280;51140;45.340;5.980;2023-07-08T05:55:33;98366.59;;;20.90;72.90
64713;BME280;51140;45.340;5.980;2023-07-08T05:57:59;98363.69;;;20.95;72.38
64713;BME280;51140;45.340;5.980;2023-07-08T06:00:24;98371.03;;;20.86;72.21
64713;BME280;51140;45.340;5.980;2023-07-08T06:02:49;98370.84;;;21.00;72.09
64713;BME280;51140;45.340;5.980;2023-07-08T06:05:15;98382.72;;;21.07;73.10
64713;BME280;51140;45.340;5.980;2023-07-08T06:07:40;98383.19;;;21.09;73.24
64713;BME280;51140;45.340;5.980;2023-07-08T06:10:06;98388.41;;;21.15;73.92
64713;BME280;51140;45.340;5.980;2023-07-08T06:12:32;98392.38;;;21.17;73.59
64713;BME280;51140;45.340;5.980;2023-07-08T06:14:57;98399.28;;;21.27;74.73
64713;BME280;51140;45.340;5.980;2023-07-08T06:17:23;98408.75;;;21.03;73.74
64713;BME280;51140;45.340;5.980;2023-07-08T06:19:48;98405.25;;;21.12;73.74
64713;BME280;51140;45.340;5.980;2023-07-08T06:22:14;98414.06;;;21.21;73.69
64713;BME280;51140;45.340;5.980;2023-07-08T06:24:39;98409.53;;;21.04;74.32
64713;BME280;51140;45.340;5.980;2023-07-08T06:27:05;98413.34;;;21.12;75.15
64713;BME280;51140;45.340;5.980;2023-07-08T06:29:33;98425.81;;;21.25;72.72
64713;BME280;51140;45.340;5.980;2023-07-08T06:31:59;98421.56;;;21.15;74.45
64713;BME280;51140;45.340;5.980;2023-07-08T06:34:24;98407.19;;;21.02;74.22
64713;BME280;51140;45.340;5.980;2023-07-08T06:36:50;98420.41;;;21.25;73.20
64713;BME280;51140;45.340;5.980;2023-07-08T06:39:16;98428.56;;;21.16;73.57
64713;BME280;51140;45.340;5.980;2023-07-08T06:41:42;98436.72;;;21.07;73.74
64713;BME280;51140;45.340;5.980;2023-07-08T06:44:07;98433.91;;;21.25;72.96
64713;BME280;51140;45.340;5.980;2023-07-08T06:46:34;98432.22;;;21.20;71.57
64713;BME280;51140;45.340;5.980;2023-07-08T06:49:00;98440.53;;;20.98;72.93
64713;BME280;51140;45.340;5.980;2023-07-08T06:51:26;98428.41;;;21.13;72.55
64713;BME280;51140;45.340;5.980;2023-07-08T06:53:51;98433.41;;;21.31;72.90
64713;BME280;51140;45.340;5.980;2023-07-08T06:56:17;98429.16;;;21.51;72.75
64713;BME280;51140;45.340;5.980;2023-07-08T06:58:42;98433.13;;;21.74;72.66
64713;BME280;51140;45.340;5.980;2023-07-08T07:01:08;98427.97;;;21.81;72.87
64713;BME280;51140;45.340;5.980;2023-07-08T07:03:33;98434.47;;;21.89;72.35
64713;BME280;51140;45.340;5.980;2023-07-08T07:05:58;98431.41;;;21.69;74.14
64713;BME280;51140;45.340;5.980;2023-07-08T07:08:24;98430.41;;;21.74;72.53
64713;BME280;51140;45.340;5.980;2023-07-08T07:10:49;98422.25;;;22.03;73.39
64713;BME280;51140;45.340;5.980;2023-07-08T07:13:16;98427.75;;;22.28;69.68
64713;BME280;51140;45.340;5.980;2023-07-08T07:15:41;98427.16;;;22.22;66.63
64713;BME280;51140;45.340;5.980;2023-07-08T07:18:06;98434.41;;;22.30;68.41
64713;BME280;51140;45.340;5.980;2023-07-08T07:20:33;98436.88;;;22.35;68.82
64713;BME280;51140;45.340;5.980;2023-07-08T07:22:59;98435.91;;;22.52;67.56
64713;BME280;51140;45.340;5.980;2023-07-08T07:25:24;98437.47;;;22.41;67.05
64713;BME280;51140;45.340;5.980;2023-07-08T07:27:49;98439.94;;;22.34;67.49
64713;BME280;51140;45.340;5.980;2023-07-08T07:30:15;98432.19;;;22.77;67.38
64713;BME280;51140;45.340;5.980;2023-07-08T07:32:42;98430.97;;;23.11;65.91
64713;BME280;51140;45.340;5.980;2023-07-08T07:35:09;98435.59;;;23.10;65.03
64713;BME280;51140;45.340;5.980;2023-07-08T07:37:38;98428.56;;;23.21;64.95
64713;BME280;51140;45.340;5.980;2023-07-08T07:40:10;98431.41;;;23.37;63.92
64713;BME280;51140;45.340;5.980;2023-07-08T07:42:38;98427.34;;;23.07;65.87
64713;BME280;51140;45.340;5.980;2023-07-08T07:45:05;98424.63;;;23.43;64.35
64713;BME280;51140;45.340;5.980;2023-07-08T07:47:30;98427.53;;;23.62;64.18
64713;BME280;51140;45.340;5.980;2023-07-08T07:49:56;98430.50;;;23.57;64.71
64713;BME280;51140;45.340;5.980;2023-07-08T07:52:22;98429.66;;;23.69;64.08
64713;BME280;51140;45.340;5.980;2023-07-08T07:54:50;98423.13;;;23.58;65.39
64713;BME280;51140;45.340;5.980;2023-07-08T07:57:16;98427.41;;;23.71;65.45
64713;BME280;51140;45.340;5.980;2023-07-08T07:59:41;98421.31;;;23.74;64.76
64713;BME280;51140;45.340;5.980;2023-07-08T08:02:08;98415.94;;;23.89;65.03
64713;BME280;51140;45.340;5.980;2023-07-08T08:04:33;98417.50;;;24.03;64.31
64713;BME280;51140;45.340;5.980;2023-07-08T08:06:59;98418.50;;;23.98;63.38
64713;BME280;51140;45.340;5.980;2023-07-08T08:09:24;98429.38;;;23.86;65.52
64713;BME280;51140;45.340;5.980;2023-07-08T08:11:49;98421.22;;;23.98;64.52
64713;BME280;51140;45.340;5.980;2023-07-08T08:14:17;98426.00;;;24.44;63.65
64713;BME280;51140;45.340;5.980;2023-07-08T08:16:43;98419.34;;;24.42;60.96
64713;BME280;51140;45.340;5.980;2023-07-08T08:19:09;98420.16;;;24.15;64.12
64713;BME280;51140;45.340;5.980;2023-07-08T08:21:34;98420.38;;;24.37;62.60
64713;BME280;51140;45.340;5.980;2023-07-08T08:23:59;98421.84;;;24.78;61.96
64713;BME280;51140;45.340;5.980;2023-07-08T08:26:25;98426.50;;;24.93;60.12
64713;BME280;51140;45.340;5.980;2023-07-08T08:28:51;98418.81;;;24.80;60.14
64713;BME280;51140;45.340;5.980;2023-07-08T08:31:16;98415.63;;;25.09;60.87
64713;BME280;51140;45.340;5.980;2023-07-08T08:33:42;98415.75;;;25.32;59.44
64713;BME280;51140;45.340;5.980;2023-07-08T08:36:07;98411.22;;;25.36;59.92
64713;BME280;51140;45.340;5.980;2023-07-08T08:38:35;98413.56;;;25.37;58.73
64713;BME280;51140;45.340;5.980;2023-07-08T08:41:10;98414.63;;;25.48;58.01
64713;BME280;51140;45.340;5.980;2023-07-08T08:43:38;98421.00;;;25.56;57.57
64713;BME280;51140;45.340;5.980;2023-07-08T08:51:46;98431.63;;;25.99;55.10
64713;BME280;51140;45.340;5.980;2023-07-08T08:54:12;98427.72;;;26.16;56.06
64713;BME280;51140;45.340;5.980;2023-07-08T08:59:30;98421.75;;;26.10;57.12
64713;BME280;51140;45.340;5.980;2023-07-08T09:02:00;98433.28;;;26.23;55.34
64713;BME280;51140;45.340;5.980;2023-07-08T09:04:33;98417.47;;;26.51;54.94
64713;BME280;51140;45.340;5.980;2023-07-08T09:07:08;98432.13;;;26.66;55.83
64713;BME280;51140;45.340;5.980;2023-07-08T09:09:47;98427.50;;;26.89;58.74
64713;BME280;51140;45.340;5.980;2023-07-08T09:12:18;98425.69;;;27.23;58.00
64713;BME280;51140;45.340;5.980;2023-07-08T09:14:46;98415.25;;;27.81;56.93
64713;BME280;51140;45.340;5.980;2023-07-08T09:17:29;98446.88;;;27.56;54.35
64713;BME280;51140;45.340;5.980;2023-07-08T09:22:38;98427.06;;;27.92;58.18
64713;BME280;51140;45.340;5.980;2023-07-08T09:27:40;98434.94;;;28.27;54.85
64713;BME280;51140;45.340;5.980;2023-07-08T09:30:10;98441.09;;;28.57;52.76
64713;BME280;51140;45.340;5.980;2023-07-08T09:32:38;98430.31;;;28.34;52.76
64713;BME280;51140;45.340;5.980;2023-07-08T09:35:06;98426.84;;;28.37;53.84
64713;BME280;51140;45.340;5.980;2023-07-08T10:26:25;98664.97;;;31.06;39.50
64713;BME280;51140;45.340;5.980;2023-07-08T10:39:47;98482.44;;;31.09;44.31
64713;BME280;51140;45.340;5.980;2023-07-08T10:42:55;98516.88;;;31.84;41.73
64713;BME280;51140;45.340;5.980;2023-07-08T10:45:39;98621.19;;;31.77;38.93
64713;BME280;51140;45.340;5.980;2023-07-08T10:56:43;98624.03;;;30.55;38.86
64713;BME280;51140;45.340;5.980;2023-07-08T10:59:19;98620.75;;;31.22;38.40
64713;BME280;51140;45.340;5.980;2023-07-08T11:04:59;98596.09;;;32.10;39.52
64713;BME280;51140;45.340;5.980;2023-07-08T11:07:44;98706.34;;;32.09;36.09
64713;BME280;51140;45.340;5.980;2023-07-08T11:10:20;98749.78;;;31.57;35.73
64713;BME280;51140;45.340;5.980;2023-07-08T11:12:55;98531.72;;;30.84;41.19
64713;BME280;51140;45.340;5.980;2023-07-08T11:15:53;98602.69;;;31.03;38.51
64713;BME280;51140;45.340;5.980;2023-07-08T11:18:28;98582.34;;;31.18;39.56
64713;BME280;51140;45.340;5.980;2023-07-08T11:21:15;98498.09;;;31.30;42.45
64713;BME280;51140;45.340;5.980;2023-07-08T11:23:56;98547.09;;;31.28;41.02
64713;BME280;51140;45.340;5.980;2023-07-08T11:29:23;98501.63;;;31.69;40.00
64713;BME280;51140;45.340;5.980;2023-07-08T11:31:50;98446.63;;;31.94;42.22
64713;BME280;51140;45.340;5.980;2023-07-08T11:34:18;98461.94;;;31.95;40.43
64713;BME280;51140;45.340;5.980;2023-07-08T11:36:46;98628.66;;;31.66;36.90
64713;BME280;51140;45.340;5.980;2023-07-08T11:39:38;98543.56;;;31.66;40.12
64713;BME280;51140;45.340;5.980;2023-07-08T11:45:08;98599.25;;;31.56;37.44
64713;BME280;51140;45.340;5.980;2023-07-08T11:47:41;98547.47;;;31.86;37.76
64713;BME280;51140;45.340;5.980;2023-07-08T11:50:23;98407.03;;;32.02;43.07
64713;BME280;51140;45.340;5.980;2023-07-08T11:53:02;98519.91;;;32.28;38.86
64713;BME280;51140;45.340;5.980;2023-07-08T11:55:48;98486.13;;;32.39;39.16
64713;BME280;51140;45.340;5.980;2023-07-08T11:58:23;98596.47;;;31.91;37.26
64713;BME280;51140;45.340;5.980;2023-07-08T12:01:16;98548.28;;;31.55;38.87
64713;BME280;51140;45.340;5.980;2023-07-08T12:08:56;98395.09;;;32.29;42.06
64713;BME280;51140;45.340;5.980;2023-07-08T12:11:34;98381.38;;;32.29;43.53
64713;BME280;51140;45.340;5.980;2023-07-08T12:14:02;98476.72;;;32.33;38.79
64713;BME280;51140;45.340;5.980;2023-07-08T12:16:30;98442.59;;;32.30;39.13
64713;BME280;51140;45.340;5.980;2023-07-08T12:18:57;98452.94;;;32.01;40.57
64713;BME280;51140;45.340;5.980;2023-07-08T12:21:26;98459.97;;;31.95;38.86
64713;BME280;51140;45.340;5.980;2023-07-08T12:23:53;98529.44;;;31.46;38.80
64713;BME280;51140;45.340;5.980;2023-07-08T12:26:18;98408.50;;;32.17;40.39
64713;BME280;51140;45.340;5.980;2023-07-08T12:28:44;98496.03;;;32.11;37.94
64713;BME280;51140;45.340;5.980;2023-07-08T12:31:18;98425.31;;;32.29;39.45
64713;BME280;51140;45.340;5.980;2023-07-08T12:33:44;98519.22;;;32.10;37.87
64713;BME280;51140;45.340;5.980;2023-07-08T12:36:22;98509.84;;;31.76;38.33
64713;BME280;51140;45.340;5.980;2023-07-08T12:38:50;98392.09;;;32.03;41.22
64713;BME280;51140;45.340;5.980;2023-07-08T12:41:20;98394.34;;;32.25;39.38
64713;BME280;51140;45.340;5.980;2023-07-08T12:43:46;98414.00;;;32.20;40.26
64713;BME280;51140;45.340;5.980;2023-07-08T12:46:12;98265.09;;;32.40;45.58
64713;BME280;51140;45.340;5.980;2023-07-08T12:48:40;98460.16;;;32.47;38.91
64713;BME280;51140;45.340;5.980;2023-07-08T12:51:11;98431.59;;;32.30;39.98
64713;BME280;51140;45.340;5.980;2023-07-08T12:53:36;98454.22;;;32.52;39.69
64713;BME280;51140;45.340;5.980;2023-07-08T12:56:02;98534.91;;;32.03;36.87
64713;BME280;51140;45.340;5.980;2023-07-08T12:58:30;98542.78;;;31.37;38.02
64713;BME280;51140;45.340;5.980;2023-07-08T13:00:58;98465.97;;;31.44;40.44
64713;BME280;51140;45.340;5.980;2023-07-08T13:03:28;98408.94;;;32.08;40.15
64713;BME280;51140;45.340;5.980;2023-07-08T13:05:55;98438.72;;;32.20;39.63
64713;BME280;51140;45.340;5.980;2023-07-08T13:08:23;98453.53;;;32.34;38.49
64713;BME280;51140;45.340;5.980;2023-07-08T13:10:52;98395.38;;;32.46;39.41
64713;BME280;51140;45.340;5.980;2023-07-08T13:13:34;98388.09;;;32.21;40.13
64713;BME280;51140;45.340;5.980;2023-07-08T13:16:01;98367.00;;;31.97;42.21
64713;BME280;51140;45.340;5.980;2023-07-08T13:18:42;98224.66;;;31.92;46.83
64713;BME280;51140;45.340;5.980;2023-07-08T13:21:12;98198.13;;;32.23;45.65
64713;BME280;51140;45.340;5.980;2023-07-08T13:23:38;98326.16;;;32.13;42.09
64713;BME280;51140;45.340;5.980;2023-07-08T13:26:17;98409.78;;;31.91;40.38
64713;BME280;51140;45.340;5.980;2023-07-08T13:28:44;98366.84;;;32.29;43.28
64713;BME280;51140;45.340;5.980;2023-07-08T13:33:45;98504.22;;;32.25;38.97
64713;BME280;51140;45.340;5.980;2023-07-08T13:36:18;98424.19;;;32.23;39.63
64713;BME280;51140;45.340;5.980;2023-07-08T13:38:45;98415.91;;;32.27;39.52
64713;BME280;51140;45.340;5.980;2023-07-08T13:41:18;98435.81;;;32.45;40.67
64713;BME280;51140;45.340;5.980;2023-07-08T13:43:44;98449.91;;;32.61;39.12
64713;BME280;51140;45.340;5.980;2023-07-08T13:52:06;98292.88;;;32.52;42.34
64713;BME280;51140;45.340;5.980;2023-07-08T13:54:42;98412.28;;;32.48;39.90
64713;BME280;51140;45.340;5.980;2023-07-08T13:57:11;98500.97;;;32.48;38.50
64713;BME280;51140;45.340;5.980;2023-07-08T13:59:37;98499.00;;;32.56;38.67
64713;BME280;51140;45.340;5.980;2023-07-08T14:02:14;98443.19;;;32.62;38.71
64713;BME280;51140;45.340;5.980;2023-07-08T14:04:40;98360.34;;;32.64;41.78
64713;BME280;51140;45.340;5.980;2023-07-08T14:07:15;98399.50;;;32.82;40.49
64713;BME280;51140;45.340;5.980;2023-07-08T14:09:41;98364.28;;;32.59;42.08
64713;BME280;51140;45.340;5.980;2023-07-08T14:12:06;98379.25;;;32.51;41.58
64713;BME280;51140;45.340;5.980;2023-07-08T14:14:32;98460.63;;;32.31;38.70
64713;BME280;51140;45.340;5.980;2023-07-08T14:16:57;98468.06;;;32.38;40.56
64713;BME280;51140;45.340;5.980;2023-07-08T14:19:26;98306.94;;;32.65;41.96
64713;BME280;51140;45.340;5.980;2023-07-08T14:21:55;98458.53;;;32.60;37.86
64713;BME280;51140;45.340;5.980;2023-07-08T14:24:21;98379.44;;;32.81;39.94
64713;BME280;51140;45.340;5.980;2023-07-08T14:26:46;98437.56;;;32.83;38.67
64713;BME280;51140;45.340;5.980;2023-07-08T14:29:12;98475.34;;;32.72;36.40
64713;BME280;51140;45.340;5.980;2023-07-08T14:31:39;98342.34;;;32.56;41.49
64713;BME280;51140;45.340;5.980;2023-07-08T14:34:11;98344.41;;;32.41;42.09
64713;BME280;51140;45.340;5.980;2023-07-08T14:36:37;98450.31;;;32.49;39.13
64713;BME280;51140;45.340;5.980;2023-07-08T14:39:12;98530.44;;;32.44;36.22
64713;BME280;51140;45.340;5.980;2023-07-08T14:41:38;98432.25;;;32.52;37.25
64713;BME280;51140;45.340;5.980;2023-07-08T14:44:19;98309.47;;;32.42;42.80
64713;BME280;51140;45.340;5.980;2023-07-08T14:46:45;98459.44;;;32.39;37.58
64713;BME280;51140;45.340;5.980;2023-07-08T14:49:15;98464.13;;;32.39;38.20
64713;BME280;51140;45.340;5.980;2023-07-08T14:51:41;98419.72;;;32.47;38.20
64713;BME280;51140;45.340;5.980;2023-07-08T14:54:06;98332.59;;;32.44;41.75
64713;BME280;51140;45.340;5.980;2023-07-08T14:56:32;98402.44;;;32.47;39.29